Aviation Digital Data Service (ADDS)

Output produced by METARs form (1109 UTC 13 December 2017)
found at http://www.aviationweather.gov/adds/metars/
 
SOCA 131100Z AUTO 06002KT 9999 -RA FEW010/// SCT017/// BKN028/// ///TCU 24/24 Q1014 TEMPO 3000 SHRA
TAF SOCA 131000Z 1310/1406 04004KT 9000 FEW010 BKN020 
     TEMPO 1310/1406 3000 SHRA SCT005 SCT012TCU